sensor_id;sensor_type;location;lat;lon;timestamp;P1;durP1;ratioP1;P2;durP2;ratioP2
19519;SDS011;9904;52.246;20.898;2023-02-01T00:00:58;20.60;;;9.43;;
19519;SDS011;9904;52.246;20.898;2023-02-01T00:03:25;18.93;;;9.33;;
19519;SDS011;9904;52.246;20.898;2023-02-01T00:05:58;15.90;;;9.43;;
19519;SDS011;9904;52.246;20.898;2023-02-01T00:08:25;18.10;;;9.30;;
19519;SDS011;9904;52.246;20.898;2023-02-01T00:10:59;21.13;;;9.17;;
19519;SDS011;9904;52.246;20.898;2023-02-01T00:13:27;16.77;;;8.70;;
19519;SDS011;9904;52.246;20.898;2023-02-01T00:16:01;18.37;;;9.20;;
19519;SDS011;9904;52.246;20.898;2023-02-01T00:18:31;17.47;;;8.43;;
19519;SDS011;9904;52.246;20.898;2023-02-01T00:20:58;18.80;;;8.90;;
19519;SDS011;9904;52.246;20.898;2023-02-01T00:23:25;13.40;;;7.80;;
19519;SDS011;9904;52.246;20.898;2023-02-01T00:25:52;15.17;;;7.40;;
19519;SDS011;9904;52.246;20.898;2023-02-01T00:28:19;12.87;;;7.10;;
19519;SDS011;9904;52.246;20.898;2023-02-01T00:30:45;13.83;;;6.40;;
19519;SDS011;9904;52.246;20.898;2023-02-01T00:33:12;10.77;;;6.00;;
19519;SDS011;9904;52.246;20.898;2023-02-01T00:35:38;8.60;;;5.03;;
19519;SDS011;9904;52.246;20.898;2023-02-01T00:38:05;8.23;;;4.93;;
19519;SDS011;9904;52.246;20.898;2023-02-01T00:40:31;7.13;;;4.27;;
19519;SDS011;9904;52.246;20.898;2023-02-01T00:42:58;8.63;;;3.50;;
19519;SDS011;9904;52.246;20.898;2023-02-01T00:45:24;8.53;;;3.70;;
19519;SDS011;9904;52.246;20.898;2023-02-01T00:47:51;6.70;;;3.27;;
19519;SDS011;9904;52.246;20.898;2023-02-01T00:50:17;8.43;;;3.53;;
19519;SDS011;9904;52.246;20.898;2023-02-01T00:52:44;7.47;;;2.70;;
19519;SDS011;9904;52.246;20.898;2023-02-01T00:55:11;10.43;;;3.00;;
19519;SDS011;9904;52.246;20.898;2023-02-01T00:57:38;8.70;;;2.70;;
19519;SDS011;9904;52.246;20.898;2023-02-01T01:00:04;3.83;;;2.10;;
19519;SDS011;9904;52.246;20.898;2023-02-01T01:02:31;9.97;;;2.03;;
19519;SDS011;9904;52.246;20.898;2023-02-01T01:04:58;5.07;;;2.40;;
19519;SDS011;9904;52.246;20.898;2023-02-01T01:07:24;8.80;;;2.10;;
19519;SDS011;9904;52.246;20.898;2023-02-01T01:09:51;5.37;;;1.67;;
19519;SDS011;9904;52.246;20.898;2023-02-01T01:12:17;4.70;;;1.80;;
19519;SDS011;9904;52.246;20.898;2023-02-01T01:14:45;7.70;;;2.03;;
19519;SDS011;9904;52.246;20.898;2023-02-01T01:17:12;6.60;;;1.80;;
19519;SDS011;9904;52.246;20.898;2023-02-01T01:19:38;4.60;;;1.53;;
19519;SDS011;9904;52.246;20.898;2023-02-01T01:22:05;4.73;;;1.30;;
19519;SDS011;9904;52.246;20.898;2023-02-01T01:24:31;6.13;;;1.67;;
19519;SDS011;9904;52.246;20.898;2023-02-01T01:26:58;6.20;;;1.33;;
19519;SDS011;9904;52.246;20.898;2023-02-01T01:29:25;4.90;;;1.30;;
19519;SDS011;9904;52.246;20.898;2023-02-01T01:31:51;7.43;;;1.23;;
19519;SDS011;9904;52.246;20.898;2023-02-01T01:34:18;6.50;;;1.40;;
19519;SDS011;9904;52.246;20.898;2023-02-01T01:36:44;6.03;;;1.70;;
19519;SDS011;9904;52.246;20.898;2023-02-01T01:39:11;8.40;;;1.53;;
19519;SDS011;9904;52.246;20.898;2023-02-01T01:41:38;6.10;;;1.60;;
19519;SDS011;9904;52.246;20.898;2023-02-01T01:44:05;8.50;;;1.87;;
19519;SDS011;9904;52.246;20.898;2023-02-01T01:46:36;5.53;;;1.50;;
19519;SDS011;9904;52.246;20.898;2023-02-01T01:49:05;10.87;;;1.63;;
19519;SDS011;9904;52.246;20.898;2023-02-01T01:51:35;12.27;;;1.53;;
19519;SDS011;9904;52.246;20.898;2023-02-01T01:54:17;12.63;;;2.10;;
19519;SDS011;9904;52.246;20.898;2023-02-01T01:56:47;8.23;;;1.90;;
19519;SDS011;9904;52.246;20.898;2023-02-01T01:59:17;9.37;;;1.50;;
19519;SDS011;9904;52.246;20.898;2023-02-01T02:01:43;14.20;;;2.20;;
19519;SDS011;9904;52.246;20.898;2023-02-01T02:04:10;11.40;;;2.67;;
19519;SDS011;9904;52.246;20.898;2023-02-01T02:06:41;10.53;;;2.20;;
19519;SDS011;9904;52.246;20.898;2023-02-01T02:09:11;11.50;;;2.20;;
19519;SDS011;9904;52.246;20.898;2023-02-01T02:11:38;12.20;;;2.33;;
19519;SDS011;9904;52.246;20.898;2023-02-01T02:14:05;11.03;;;2.30;;
19519;SDS011;9904;52.246;20.898;2023-02-01T02:16:37;10.77;;;2.40;;
19519;SDS011;9904;52.246;20.898;2023-02-01T02:19:22;14.63;;;2.50;;
19519;SDS011;9904;52.246;20.898;2023-02-01T02:31:14;13.67;;;2.90;;
19519;SDS011;9904;52.246;20.898;2023-02-01T02:36:20;13.03;;;2.70;;
19519;SDS011;9904;52.246;20.898;2023-02-01T02:39:34;14.90;;;2.70;;
19519;SDS011;9904;52.246;20.898;2023-02-01T02:42:09;22.37;;;2.83;;
19519;SDS011;9904;52.246;20.898;2023-02-01T02:45:21;8.53;;;2.87;;
19519;SDS011;9904;52.246;20.898;2023-02-01T02:48:22;8.87;;;3.20;;
19519;SDS011;9904;52.246;20.898;2023-02-01T02:51:00;14.40;;;3.30;;
19519;SDS011;9904;52.246;20.898;2023-02-01T02:53:56;13.03;;;3.27;;
19519;SDS011;9904;52.246;20.898;2023-02-01T02:56:45;15.13;;;2.97;;
19519;SDS011;9904;52.246;20.898;2023-02-01T02:59:30;13.53;;;2.50;;
19519;SDS011;9904;52.246;20.898;2023-02-01T03:02:16;17.43;;;3.30;;
19519;SDS011;9904;52.246;20.898;2023-02-01T03:05:01;11.47;;;2.20;;
19519;SDS011;9904;52.246;20.898;2023-02-01T03:10:48;13.13;;;2.40;;
19519;SDS011;9904;52.246;20.898;2023-02-01T03:16:13;13.73;;;2.40;;
19519;SDS011;9904;52.246;20.898;2023-02-01T03:21:41;15.77;;;2.90;;
19519;SDS011;9904;52.246;20.898;2023-02-01T03:26:47;12.37;;;2.40;;
19519;SDS011;9904;52.246;20.898;2023-02-01T03:29:17;18.73;;;2.73;;
19519;SDS011;9904;52.246;20.898;2023-02-01T03:31:47;15.73;;;2.10;;
19519;SDS011;9904;52.246;20.898;2023-02-01T03:34:14;15.57;;;2.10;;
19519;SDS011;9904;52.246;20.898;2023-02-01T03:36:43;16.70;;;2.40;;
19519;SDS011;9904;52.246;20.898;2023-02-01T03:39:22;15.30;;;2.50;;
19519;SDS011;9904;52.246;20.898;2023-02-01T03:41:56;19.87;;;2.73;;
19519;SDS011;9904;52.246;20.898;2023-02-01T03:47:12;20.13;;;2.97;;
19519;SDS011;9904;52.246;20.898;2023-02-01T03:52:47;17.63;;;3.57;;
19519;SDS011;9904;52.246;20.898;2023-02-01T03:55:17;24.13;;;3.27;;
19519;SDS011;9904;52.246;20.898;2023-02-01T03:57:50;24.37;;;3.27;;
19519;SDS011;9904;52.246;20.898;2023-02-01T04:00:20;19.73;;;3.60;;
19519;SDS011;9904;52.246;20.898;2023-02-01T04:02:50;23.00;;;3.07;;
19519;SDS011;9904;52.246;20.898;2023-02-01T04:05:17;15.93;;;2.57;;
19519;SDS011;9904;52.246;20.898;2023-02-01T04:07:43;26.40;;;3.10;;
19519;SDS011;9904;52.246;20.898;2023-02-01T04:10:10;15.20;;;2.90;;
19519;SDS011;9904;52.246;20.898;2023-02-01T04:12:37;16.13;;;3.10;;
19519;SDS011;9904;52.246;20.898;2023-02-01T04:15:04;14.77;;;2.50;;
19519;SDS011;9904;52.246;20.898;2023-02-01T04:17:31;22.87;;;3.07;;
19519;SDS011;9904;52.246;20.898;2023-02-01T04:19:58;15.73;;;2.47;;
19519;SDS011;9904;52.246;20.898;2023-02-01T04:22:24;20.40;;;2.97;;
19519;SDS011;9904;52.246;20.898;2023-02-01T04:24:51;20.37;;;2.60;;
19519;SDS011;9904;52.246;20.898;2023-02-01T04:27:17;16.07;;;3.70;;
19519;SDS011;9904;52.246;20.898;2023-02-01T04:29:44;15.20;;;2.50;;
19519;SDS011;9904;52.246;20.898;2023-02-01T04:32:16;16.07;;;2.77;;
19519;SDS011;9904;52.246;20.898;2023-02-01T04:34:42;15.43;;;2.70;;
19519;SDS011;9904;52.246;20.898;2023-02-01T04:37:09;11.87;;;2.00;;
19519;SDS011;9904;52.246;20.898;2023-02-01T04:39:36;15.50;;;2.40;;
19519;SDS011;9904;52.246;20.898;2023-02-01T04:42:02;14.10;;;2.17;;
19519;SDS011;9904;52.246;20.898;2023-02-01T04:44:29;16.93;;;2.70;;
19519;SDS011;9904;52.246;20.898;2023-02-01T04:46:56;14.60;;;2.33;;
19519;SDS011;9904;52.246;20.898;2023-02-01T04:49:22;15.43;;;2.97;;
19519;SDS011;9904;52.246;20.898;2023-02-01T04:51:49;10.13;;;2.50;;
19519;SDS011;9904;52.246;20.898;2023-02-01T04:54:15;16.53;;;2.50;;
19519;SDS011;9904;52.246;20.898;2023-02-01T04:56:42;12.43;;;2.50;;
19519;SDS011;9904;52.246;20.898;2023-02-01T04:59:10;15.70;;;2.33;;
19519;SDS011;9904;52.246;20.898;2023-02-01T05:01:37;18.93;;;2.63;;
19519;SDS011;9904;52.246;20.898;2023-02-01T05:04:04;13.20;;;2.37;;
19519;SDS011;9904;52.246;20.898;2023-02-01T05:06:31;19.33;;;3.17;;
19519;SDS011;9904;52.246;20.898;2023-02-01T05:08:57;15.03;;;2.40;;
19519;SDS011;9904;52.246;20.898;2023-02-01T05:11:23;23.13;;;2.47;;
19519;SDS011;9904;52.246;20.898;2023-02-01T05:14:09;12.67;;;2.40;;
19519;SDS011;9904;52.246;20.898;2023-02-01T05:16:35;14.00;;;2.57;;
19519;SDS011;9904;52.246;20.898;2023-02-01T05:19:02;24.73;;;3.33;;
19519;SDS011;9904;52.246;20.898;2023-02-01T05:21:28;17.57;;;2.50;;
19519;SDS011;9904;52.246;20.898;2023-02-01T05:23:55;12.87;;;2.83;;
19519;SDS011;9904;52.246;20.898;2023-02-01T05:26:41;15.13;;;2.20;;
19519;SDS011;9904;52.246;20.898;2023-02-01T05:29:09;20.87;;;2.67;;
19519;SDS011;9904;52.246;20.898;2023-02-01T05:31:36;15.67;;;2.67;;
19519;SDS011;9904;52.246;20.898;2023-02-01T05:34:03;10.93;;;2.00;;
19519;SDS011;9904;52.246;20.898;2023-02-01T05:36:30;22.10;;;4.23;;
19519;SDS011;9904;52.246;20.898;2023-02-01T05:38:57;18.63;;;3.77;;
19519;SDS011;9904;52.246;20.898;2023-02-01T05:41:23;18.73;;;3.17;;
19519;SDS011;9904;52.246;20.898;2023-02-01T05:43:50;19.93;;;2.93;;
19519;SDS011;9904;52.246;20.898;2023-02-01T05:46:16;19.67;;;2.60;;
19519;SDS011;9904;52.246;20.898;2023-02-01T05:48:43;21.53;;;2.87;;
19519;SDS011;9904;52.246;20.898;2023-02-01T05:51:10;22.73;;;3.10;;
19519;SDS011;9904;52.246;20.898;2023-02-01T05:53:38;20.40;;;3.40;;
19519;SDS011;9904;52.246;20.898;2023-02-01T05:56:04;19.77;;;3.63;;
19519;SDS011;9904;52.246;20.898;2023-02-01T05:58:31;21.97;;;3.13;;
19519;SDS011;9904;52.246;20.898;2023-02-01T06:01:00;17.50;;;2.67;;
19519;SDS011;9904;52.246;20.898;2023-02-01T06:03:27;24.23;;;3.10;;
19519;SDS011;9904;52.246;20.898;2023-02-01T06:05:54;22.10;;;2.77;;
19519;SDS011;9904;52.246;20.898;2023-02-01T06:08:21;14.93;;;2.67;;
19519;SDS011;9904;52.246;20.898;2023-02-01T06:10:47;21.83;;;4.07;;
19519;SDS011;9904;52.246;20.898;2023-02-01T06:13:14;18.73;;;2.80;;
19519;SDS011;9904;52.246;20.898;2023-02-01T06:15:40;22.03;;;3.20;;
19519;SDS011;9904;52.246;20.898;2023-02-01T06:18:08;16.83;;;3.07;;
19519;SDS011;9904;52.246;20.898;2023-02-01T06:20:35;13.77;;;2.93;;
19519;SDS011;9904;52.246;20.898;2023-02-01T06:23:01;13.27;;;2.80;;
19519;SDS011;9904;52.246;20.898;2023-02-01T06:25:28;18.57;;;2.87;;
19519;SDS011;9904;52.246;20.898;2023-02-01T06:27:54;18.33;;;2.90;;
19519;SDS011;9904;52.246;20.898;2023-02-01T06:30:21;14.60;;;2.57;;
19519;SDS011;9904;52.246;20.898;2023-02-01T06:32:50;21.43;;;3.57;;
19519;SDS011;9904;52.246;20.898;2023-02-01T06:35:19;20.50;;;2.90;;
19519;SDS011;9904;52.246;20.898;2023-02-01T06:37:46;16.00;;;2.80;;
19519;SDS011;9904;52.246;20.898;2023-02-01T06:40:12;16.97;;;2.87;;
19519;SDS011;9904;52.246;20.898;2023-02-01T06:42:39;19.30;;;2.87;;
19519;SDS011;9904;52.246;20.898;2023-02-01T06:45:06;15.33;;;3.03;;
19519;SDS011;9904;52.246;20.898;2023-02-01T06:47:33;14.60;;;2.67;;
19519;SDS011;9904;52.246;20.898;2023-02-01T06:50:00;15.37;;;2.83;;
19519;SDS011;9904;52.246;20.898;2023-02-01T06:52:27;13.97;;;2.80;;
19519;SDS011;9904;52.246;20.898;2023-02-01T06:54:53;15.63;;;2.77;;
19519;SDS011;9904;52.246;20.898;2023-02-01T06:57:20;15.20;;;2.17;;
19519;SDS011;9904;52.246;20.898;2023-02-01T06:59:46;11.57;;;2.63;;
19519;SDS011;9904;52.246;20.898;2023-02-01T07:02:13;18.27;;;3.13;;
19519;SDS011;9904;52.246;20.898;2023-02-01T07:04:39;18.00;;;3.03;;
19519;SDS011;9904;52.246;20.898;2023-02-01T07:07:06;20.67;;;2.77;;
19519;SDS011;9904;52.246;20.898;2023-02-01T07:09:33;20.43;;;3.20;;
19519;SDS011;9904;52.246;20.898;2023-02-01T07:11:59;17.00;;;3.23;;
19519;SDS011;9904;52.246;20.898;2023-02-01T07:14:26;17.00;;;3.63;;
19519;SDS011;9904;52.246;20.898;2023-02-01T07:16:52;17.77;;;3.10;;
19519;SDS011;9904;52.246;20.898;2023-02-01T07:19:19;11.80;;;3.17;;
19519;SDS011;9904;52.246;20.898;2023-02-01T07:21:45;18.90;;;3.10;;
19519;SDS011;9904;52.246;20.898;2023-02-01T07:24:12;17.87;;;3.10;;
19519;SDS011;9904;52.246;20.898;2023-02-01T07:26:40;17.00;;;3.00;;
19519;SDS011;9904;52.246;20.898;2023-02-01T07:29:07;13.63;;;3.00;;
19519;SDS011;9904;52.246;20.898;2023-02-01T07:31:34;18.60;;;2.97;;
19519;SDS011;9904;52.246;20.898;2023-02-01T07:34:00;22.20;;;3.57;;
19519;SDS011;9904;52.246;20.898;2023-02-01T07:36:28;17.40;;;3.53;;
19519;SDS011;9904;52.246;20.898;2023-02-01T07:38:55;19.30;;;3.10;;
19519;SDS011;9904;52.246;20.898;2023-02-01T07:41:22;25.80;;;3.23;;
19519;SDS011;9904;52.246;20.898;2023-02-01T07:43:48;17.73;;;3.60;;
19519;SDS011;9904;52.246;20.898;2023-02-01T07:46:18;20.30;;;3.33;;
19519;SDS011;9904;52.246;20.898;2023-02-01T07:48:45;21.47;;;3.53;;
19519;SDS011;9904;52.246;20.898;2023-02-01T07:51:12;20.57;;;3.43;;
19519;SDS011;9904;52.246;20.898;2023-02-01T07:53:41;20.20;;;3.20;;
19519;SDS011;9904;52.246;20.898;2023-02-01T07:56:14;13.13;;;2.90;;
19519;SDS011;9904;52.246;20.898;2023-02-01T07:58:46;22.20;;;3.30;;
19519;SDS011;9904;52.246;20.898;2023-02-01T08:01:19;16.67;;;4.03;;
19519;SDS011;9904;52.246;20.898;2023-02-01T08:03:56;17.23;;;3.17;;
19519;SDS011;9904;52.246;20.898;2023-02-01T08:06:25;14.60;;;3.00;;
19519;SDS011;9904;52.246;20.898;2023-02-01T08:08:52;16.83;;;3.30;;
19519;SDS011;9904;52.246;20.898;2023-02-01T08:11:19;14.67;;;3.00;;
19519;SDS011;9904;52.246;20.898;2023-02-01T08:13:47;15.60;;;3.47;;
19519;SDS011;9904;52.246;20.898;2023-02-01T08:16:14;27.80;;;3.10;;
19519;SDS011;9904;52.246;20.898;2023-02-01T08:18:46;22.07;;;3.43;;
19519;SDS011;9904;52.246;20.898;2023-02-01T08:21:58;17.93;;;3.33;;
19519;SDS011;9904;52.246;20.898;2023-02-01T08:24:25;24.17;;;3.73;;
19519;SDS011;9904;52.246;20.898;2023-02-01T08:26:52;21.03;;;3.33;;
19519;SDS011;9904;52.246;20.898;2023-02-01T08:29:18;21.07;;;3.47;;
19519;SDS011;9904;52.246;20.898;2023-02-01T08:31:45;24.13;;;3.90;;
19519;SDS011;9904;52.246;20.898;2023-02-01T08:34:11;19.43;;;3.70;;
19519;SDS011;9904;52.246;20.898;2023-02-01T08:36:38;17.73;;;4.37;;
19519;SDS011;9904;52.246;20.898;2023-02-01T08:39:05;22.87;;;4.20;;
19519;SDS011;9904;52.246;20.898;2023-02-01T08:41:35;17.20;;;4.07;;
19519;SDS011;9904;52.246;20.898;2023-02-01T08:44:01;20.77;;;5.07;;
19519;SDS011;9904;52.246;20.898;2023-02-01T08:46:28;31.07;;;5.73;;
19519;SDS011;9904;52.246;20.898;2023-02-01T08:48:55;22.37;;;4.57;;
19519;SDS011;9904;52.246;20.898;2023-02-01T08:51:22;20.47;;;4.90;;
19519;SDS011;9904;52.246;20.898;2023-02-01T08:53:49;21.43;;;4.23;;
19519;SDS011;9904;52.246;20.898;2023-02-01T08:56:17;23.87;;;5.03;;
19519;SDS011;9904;52.246;20.898;2023-02-01T08:58:44;17.10;;;3.60;;
19519;SDS011;9904;52.246;20.898;2023-02-01T09:01:15;14.13;;;3.50;;
19519;SDS011;9904;52.246;20.898;2023-02-01T09:03:43;25.70;;;3.50;;
19519;SDS011;9904;52.246;20.898;2023-02-01T09:06:11;17.37;;;2.93;;
19519;SDS011;9904;52.246;20.898;2023-02-01T09:08:38;23.20;;;3.43;;
19519;SDS011;9904;52.246;20.898;2023-02-01T09:11:06;16.33;;;3.53;;
19519;SDS011;9904;52.246;20.898;2023-02-01T09:13:34;18.63;;;3.53;;
19519;SDS011;9904;52.246;20.898;2023-02-01T09:16:01;17.67;;;2.83;;
19519;SDS011;9904;52.246;20.898;2023-02-01T09:18:29;19.33;;;3.20;;
19519;SDS011;9904;52.246;20.898;2023-02-01T09:20:55;19.33;;;3.50;;
19519;SDS011;9904;52.246;20.898;2023-02-01T09:23:22;17.90;;;3.47;;
19519;SDS011;9904;52.246;20.898;2023-02-01T09:25:49;17.87;;;3.20;;
19519;SDS011;9904;52.246;20.898;2023-02-01T09:28:18;18.13;;;3.30;;
19519;SDS011;9904;52.246;20.898;2023-02-01T09:30:45;26.73;;;3.53;;
19519;SDS011;9904;52.246;20.898;2023-02-01T09:33:11;28.53;;;4.90;;
19519;SDS011;9904;52.246;20.898;2023-02-01T09:35:38;27.27;;;3.93;;
19519;SDS011;9904;52.246;20.898;2023-02-01T09:38:05;19.23;;;3.73;;
19519;SDS011;9904;52.246;20.898;2023-02-01T09:40:33;18.37;;;3.87;;
19519;SDS011;9904;52.246;20.898;2023-02-01T09:48:27;16.27;;;3.30;;
19519;SDS011;9904;52.246;20.898;2023-02-01T09:50:57;20.50;;;3.33;;
19519;SDS011;9904;52.246;20.898;2023-02-01T09:53:29;14.73;;;3.43;;
19519;SDS011;9904;52.246;20.898;2023-02-01T09:56:04;17.73;;;3.10;;
19519;SDS011;9904;52.246;20.898;2023-02-01T09:58:45;10.63;;;2.93;;
19519;SDS011;9904;52.246;20.898;2023-02-01T10:01:28;20.70;;;3.37;;
19519;SDS011;9904;52.246;20.898;2023-02-01T10:04:05;14.87;;;3.23;;
19519;SDS011;9904;52.246;20.898;2023-02-01T10:06:55;11.63;;;3.03;;
19519;SDS011;9904;52.246;20.898;2023-02-01T10:21:02;21.17;;;3.20;;
19519;SDS011;9904;52.246;20.898;2023-02-01T10:26:22;11.50;;;2.93;;
19519;SDS011;9904;52.246;20.898;2023-02-01T10:28:50;14.70;;;3.23;;
19519;SDS011;9904;52.246;20.898;2023-02-01T10:31:22;14.50;;;2.83;;
19519;SDS011;9904;52.246;20.898;2023-02-01T10:33:53;16.47;;;2.80;;
19519;SDS011;9904;52.246;20.898;2023-02-01T10:36:31;11.30;;;3.00;;
19519;SDS011;9904;52.246;20.898;2023-02-01T10:39:03;20.60;;;3.30;;
19519;SDS011;9904;52.246;20.898;2023-02-01T10:41:34;17.53;;;2.87;;
19519;SDS011;9904;52.246;20.898;2023-02-01T10:44:03;18.03;;;3.17;;
19519;SDS011;9904;52.246;20.898;2023-02-01T10:46:31;11.10;;;3.23;;
19519;SDS011;9904;52.246;20.898;2023-02-01T10:48:58;22.13;;;3.87;;
19519;SDS011;9904;52.246;20.898;2023-02-01T10:51:30;17.27;;;3.80;;
19519;SDS011;9904;52.246;20.898;2023-02-01T10:54:22;14.80;;;3.57;;
19519;SDS011;9904;52.246;20.898;2023-02-01T10:56:58;24.40;;;4.20;;
19519;SDS011;9904;52.246;20.898;2023-02-01T10:59:28;20.30;;;3.83;;
19519;SDS011;9904;52.246;20.898;2023-02-01T11:01:59;19.40;;;3.70;;
19519;SDS011;9904;52.246;20.898;2023-02-01T11:04:28;17.67;;;4.33;;
19519;SDS011;9904;52.246;20.898;2023-02-01T11:09:48;22.10;;;4.80;;
19519;SDS011;9904;52.246;20.898;2023-02-01T11:15:42;15.93;;;4.10;;
19519;SDS011;9904;52.246;20.898;2023-02-01T11:17:49;18.07;;;3.40;;
19519;SDS011;9904;52.246;20.898;2023-02-01T11:20:19;17.50;;;3.43;;
19519;SDS011;9904;52.246;20.898;2023-02-01T11:22:54;21.03;;;3.70;;
19519;SDS011;9904;52.246;20.898;2023-02-01T11:25:22;16.77;;;3.50;;
19519;SDS011;9904;52.246;20.898;2023-02-01T11:27:50;14.17;;;3.17;;
19519;SDS011;9904;52.246;20.898;2023-02-01T11:33:01;11.47;;;2.90;;
19519;SDS011;9904;52.246;20.898;2023-02-01T11:35:31;14.03;;;3.10;;
19519;SDS011;9904;52.246;20.898;2023-02-01T11:37:59;18.97;;;3.10;;
19519;SDS011;9904;52.246;20.898;2023-02-01T11:40:35;16.17;;;3.50;;
19519;SDS011;9904;52.246;20.898;2023-02-01T11:43:24;20.63;;;4.23;;
19519;SDS011;9904;52.246;20.898;2023-02-01T11:45:55;13.60;;;2.83;;
19519;SDS011;9904;52.246;20.898;2023-02-01T11:48:24;17.27;;;3.57;;
19519;SDS011;9904;52.246;20.898;2023-02-01T11:51:12;17.57;;;4.20;;
19519;SDS011;9904;52.246;20.898;2023-02-01T11:54:17;21.93;;;3.70;;
19519;SDS011;9904;52.246;20.898;2023-02-01T11:59:33;19.13;;;3.80;;
19519;SDS011;9904;52.246;20.898;2023-02-01T12:02:37;16.90;;;3.53;;
19519;SDS011;9904;52.246;20.898;2023-02-01T12:07:51;14.70;;;3.67;;
19519;SDS011;9904;52.246;20.898;2023-02-01T12:10:43;16.93;;;3.83;;
19519;SDS011;9904;52.246;20.898;2023-02-01T12:16:18;20.73;;;4.97;;
19519;SDS011;9904;52.246;20.898;2023-02-01T12:18:50;19.43;;;4.33;;
19519;SDS011;9904;52.246;20.898;2023-02-01T12:24:26;26.20;;;4.50;;
19519;SDS011;9904;52.246;20.898;2023-02-01T12:43:58;22.73;;;5.13;;
19519;SDS011;9904;52.246;20.898;2023-02-01T12:46:40;21.93;;;4.87;;
19519;SDS011;9904;52.246;20.898;2023-02-01T12:49:17;25.50;;;5.03;;
19519;SDS011;9904;52.246;20.898;2023-02-01T12:51:58;34.33;;;5.53;;
19519;SDS011;9904;52.246;20.898;2023-02-01T12:57:04;28.37;;;5.63;;
19519;SDS011;9904;52.246;20.898;2023-02-01T12:59:35;29.17;;;5.83;;
19519;SDS011;9904;52.246;20.898;2023-02-01T13:04:34;22.27;;;5.73;;
19519;SDS011;9904;52.246;20.898;2023-02-01T13:09:53;21.07;;;4.57;;
19519;SDS011;9904;52.246;20.898;2023-02-01T13:12:32;17.50;;;4.53;;
19519;SDS011;9904;52.246;20.898;2023-02-01T13:15:49;18.20;;;4.93;;
19519;SDS011;9904;52.246;20.898;2023-02-01T13:17:58;20.87;;;4.97;;
19519;SDS011;9904;52.246;20.898;2023-02-01T13:23:18;21.87;;;4.80;;
19519;SDS011;9904;52.246;20.898;2023-02-01T13:25:50;18.47;;;4.33;;
19519;SDS011;9904;52.246;20.898;2023-02-01T13:42:18;16.80;;;4.03;;
19519;SDS011;9904;52.246;20.898;2023-02-01T13:44:55;12.20;;;3.50;;
19519;SDS011;9904;52.246;20.898;2023-02-01T13:47:39;21.27;;;4.60;;
19519;SDS011;9904;52.246;20.898;2023-02-01T13:50:23;18.67;;;4.20;;
19519;SDS011;9904;52.246;20.898;2023-02-01T13:57:48;16.60;;;4.53;;
19519;SDS011;9904;52.246;20.898;2023-02-01T14:26:25;17.67;;;4.33;;
19519;SDS011;9904;52.246;20.898;2023-02-01T14:29:21;18.40;;;4.40;;
19519;SDS011;9904;52.246;20.898;2023-02-01T14:31:53;15.87;;;4.13;;
19519;SDS011;9904;52.246;20.898;2023-02-01T14:39:55;13.77;;;3.80;;
19519;SDS011;9904;52.246;20.898;2023-02-01T14:42:30;16.33;;;4.07;;
19519;SDS011;9904;52.246;20.898;2023-02-01T14:47:53;11.57;;;3.50;;
19519;SDS011;9904;52.246;20.898;2023-02-01T14:50:49;10.80;;;3.50;;
19519;SDS011;9904;52.246;20.898;2023-02-01T14:53:18;11.80;;;3.50;;
19519;SDS011;9904;52.246;20.898;2023-02-01T14:55:53;10.67;;;3.33;;
19519;SDS011;9904;52.246;20.898;2023-02-01T15:06:21;10.57;;;4.00;;
19519;SDS011;9904;52.246;20.898;2023-02-01T15:09:13;13.77;;;3.40;;
19519;SDS011;9904;52.246;20.898;2023-02-01T15:14:48;12.17;;;3.47;;
19519;SDS011;9904;52.246;20.898;2023-02-01T15:17:30;14.33;;;4.13;;
19519;SDS011;9904;52.246;20.898;2023-02-01T15:22:38;12.87;;;3.53;;
19519;SDS011;9904;52.246;20.898;2023-02-01T15:25:05;10.37;;;3.63;;
19519;SDS011;9904;52.246;20.898;2023-02-01T15:27:32;9.67;;;3.37;;
19519;SDS011;9904;52.246;20.898;2023-02-01T15:30:12;16.30;;;4.20;;
19519;SDS011;9904;52.246;20.898;2023-02-01T15:32:43;13.87;;;4.00;;
19519;SDS011;9904;52.246;20.898;2023-02-01T15:41:23;16.93;;;5.00;;
19519;SDS011;9904;52.246;20.898;2023-02-01T15:46:22;12.83;;;4.20;;
19519;SDS011;9904;52.246;20.898;2023-02-01T15:48:56;14.27;;;4.60;;
19519;SDS011;9904;52.246;20.898;2023-02-01T15:51:23;17.13;;;5.30;;
19519;SDS011;9904;52.246;20.898;2023-02-01T15:53:52;12.83;;;5.30;;
19519;SDS011;9904;52.246;20.898;2023-02-01T15:56:24;13.63;;;4.97;;
19519;SDS011;9904;52.246;20.898;2023-02-01T15:58:57;14.70;;;5.40;;
19519;SDS011;9904;52.246;20.898;2023-02-01T16:01:24;13.43;;;5.40;;
19519;SDS011;9904;52.246;20.898;2023-02-01T16:04:14;19.93;;;5.87;;
19519;SDS011;9904;52.246;20.898;2023-02-01T16:06:52;11.87;;;5.40;;
19519;SDS011;9904;52.246;20.898;2023-02-01T16:09:24;13.30;;;5.70;;
19519;SDS011;9904;52.246;20.898;2023-02-01T16:11:59;13.63;;;5.57;;
19519;SDS011;9904;52.246;20.898;2023-02-01T16:14:27;13.87;;;5.53;;
19519;SDS011;9904;52.246;20.898;2023-02-01T16:16:54;13.00;;;5.83;;
19519;SDS011;9904;52.246;20.898;2023-02-01T16:19:22;13.23;;;5.80;;
19519;SDS011;9904;52.246;20.898;2023-02-01T16:21:54;12.87;;;5.23;;
19519;SDS011;9904;52.246;20.898;2023-02-01T16:24:21;15.93;;;5.40;;
19519;SDS011;9904;52.246;20.898;2023-02-01T16:26:51;12.10;;;5.37;;
19519;SDS011;9904;52.246;20.898;2023-02-01T16:29:17;12.00;;;5.50;;
19519;SDS011;9904;52.246;20.898;2023-02-01T16:31:44;20.03;;;6.40;;
19519;SDS011;9904;52.246;20.898;2023-02-01T16:34:15;15.33;;;5.50;;
19519;SDS011;9904;52.246;20.898;2023-02-01T16:36:48;13.17;;;5.80;;
19519;SDS011;9904;52.246;20.898;2023-02-01T16:39:21;12.60;;;6.40;;
19519;SDS011;9904;52.246;20.898;2023-02-01T16:41:48;17.33;;;6.63;;
19519;SDS011;9904;52.246;20.898;2023-02-01T16:44:14;13.63;;;5.63;;
19519;SDS011;9904;52.246;20.898;2023-02-01T16:46:42;18.03;;;6.20;;
19519;SDS011;9904;52.246;20.898;2023-02-01T16:49:21;17.07;;;6.37;;
19519;SDS011;9904;52.246;20.898;2023-02-01T16:51:51;15.07;;;5.90;;
19519;SDS011;9904;52.246;20.898;2023-02-01T16:54:21;16.23;;;6.20;;
19519;SDS011;9904;52.246;20.898;2023-02-01T16:56:48;17.30;;;6.10;;
19519;SDS011;9904;52.246;20.898;2023-02-01T16:59:14;19.70;;;7.37;;
19519;SDS011;9904;52.246;20.898;2023-02-01T17:01:41;22.63;;;8.27;;
19519;SDS011;9904;52.246;20.898;2023-02-01T17:04:09;18.90;;;7.43;;
19519;SDS011;9904;52.246;20.898;2023-02-01T17:06:36;18.83;;;6.87;;
19519;SDS011;9904;52.246;20.898;2023-02-01T17:09:04;20.17;;;6.87;;
19519;SDS011;9904;52.246;20.898;2023-02-01T17:11:31;14.23;;;6.57;;
19519;SDS011;9904;52.246;20.898;2023-02-01T17:14:04;18.67;;;6.47;;
19519;SDS011;9904;52.246;20.898;2023-02-01T17:16:40;15.83;;;6.60;;
19519;SDS011;9904;52.246;20.898;2023-02-01T17:19:09;16.97;;;6.50;;
19519;SDS011;9904;52.246;20.898;2023-02-01T17:21:41;15.30;;;6.50;;
19519;SDS011;9904;52.246;20.898;2023-02-01T17:24:11;16.77;;;6.20;;
19519;SDS011;9904;52.246;20.898;2023-02-01T17:26:40;20.87;;;6.10;;
19519;SDS011;9904;52.246;20.898;2023-02-01T17:29:07;15.57;;;6.17;;
19519;SDS011;9904;52.246;20.898;2023-02-01T17:31:42;19.10;;;6.70;;
19519;SDS011;9904;52.246;20.898;2023-02-01T17:34:11;14.07;;;5.87;;
19519;SDS011;9904;52.246;20.898;2023-02-01T17:36:41;17.10;;;5.60;;
19519;SDS011;9904;52.246;20.898;2023-02-01T17:39:08;18.13;;;5.97;;
19519;SDS011;9904;52.246;20.898;2023-02-01T17:41:35;15.20;;;6.20;;
19519;SDS011;9904;52.246;20.898;2023-02-01T17:44:03;17.97;;;5.90;;
19519;SDS011;9904;52.246;20.898;2023-02-01T17:46:30;19.63;;;6.30;;
19519;SDS011;9904;52.246;20.898;2023-02-01T17:48:57;15.13;;;6.00;;